Terminal Aerodrome Forecast
Issued by NWS La Crosse, WI

Home | Current Version | Previous Version | Text Only | Print | Product List | Glossary On
Versions: 1 2 3 4 5 6 7 8 9 10 11 12 13 14 15 16 17 18 19 20 21
000
FTUS43 KARX 231720
TAFRST
TAF
KRST 231720Z 2318/2418 30016G25KT P6SM BKN040
     FM240000 30014KT P6SM BKN045
     FM240200 30011KT P6SM SCT045
     FM241500 30015G23KT P6SM SCT050=

USA.gov is the U.S. government's official web portal to all federal, state and local government web resources and services.